• Join FlightAware (Why Join?)
  • Login
  • US Flag 
02:07AM EDT


 

Airport Tracker/Info


-or-


 

Live Flight TrackerFlight Track Log ✈ N724AE ✈ 19-Apr-2013 ✈ KDFW - KTLH

Flight Track Log - Related Links

Times and Time Zones

All times are in EDT time to prevent confusion due to time zone crossing. See the N724AE flight status page for this flight to view local times or setup timezone preferences in your user account.

Time Position Orientation Groundspeed Altitude Reporting Facility
EDT Latitude Longitude Course Direction KTS MPH feet Rate Location/Type
07:57PM 32.9333 -97.0333 90° East 172 198 2,100  Level Dallas / Fort Worth TRACON
07:58PM 32.9833 -97.0167 16° North 247 284 4,400 2,400 Climbing Dallas / Fort Worth TRACON
07:59PM 32.6858 -96.7704 77° East  Level FlightAware Approximate
08:00PM 32.7143 -96.6183 77° East  Level FlightAware Approximate
08:01PM 32.7377 -96.4652 84° East  Level FlightAware Approximate
08:01PM 32.9781 -96.8192 92° East 261 300 10,200  Level Fort Worth Center
08:02PM 32.7500 -96.3101 90° East  Level FlightAware Approximate
08:02PM 32.9358 -96.7303 119° Southeast 319 367 11,600  Level Fort Worth Center
08:03PM 32.8831 -96.6094 117° Southeast 362 417 13,300 1,620 Climbing Fort Worth Center
08:04PM 32.8656 -96.4836 99° East 374 430 14,900 1,500 Climbing Fort Worth Center
08:05PM 32.8539 -96.3575 96° East 387 445 16,400 1,440 Climbing Fort Worth Center
08:06PM 32.8425 -96.2242 96° East 393 452 17,800 1,380 Climbing Fort Worth Center
08:07PM 32.8328 -96.0931 95° East 400 460 19,200 1,560 Climbing Fort Worth Center
08:08PM 32.8208 -95.9575 96° East 405 466 20,900 1,500 Climbing Fort Worth Center
08:09PM 32.8089 -95.8242 96° East 405 466 22,300 1,440 Climbing Fort Worth Center
08:10PM 32.7964 -95.6833 96° East 411 473 23,900 1,500 Climbing Fort Worth Center
08:11PM 32.7861 -95.5453 95° East 417 480 25,400 1,500 Climbing Fort Worth Center
08:12PM 32.7736 -95.4097 96° East 417 480 26,900 1,380 Climbing Fort Worth Center
08:13PM 32.7592 -95.2989 99° East 423 487 28,200 1,020 Climbing Fort Worth Center
08:14PM 32.7442 -95.1436 97° East 423 487 29,000 360 Climbing Fort Worth Center
08:15PM 32.7286 -94.9933 97° East 435 501 29,000 480 Level Fort Worth Center
08:16PM 32.7131 -94.8358 97° East 462 532 30,000 960 Climbing Fort Worth Center
08:17PM 32.6869 -94.6808 101° East 474 545 31,000 780 Climbing Fort Worth Center
08:18PM 32.6542 -94.5217 104° East 487 560 31,600 960 Climbing Fort Worth Center
08:19PM 32.6231 -94.3597 103° East 492 566 33,000 720 Climbing Fort Worth Center
08:20PM 32.5900 -94.1983 104° East 498 573 33,100 600 Climbing Fort Worth Center
08:21PM 32.5564 -94.0342 104° East 503 579 34,300 900 Climbing Fort Worth Center
08:22PM 32.5247 -93.8703 103° East 503 579 35,000 420 Climbing Fort Worth Center
08:23PM 32.4908 -93.7042 104° East 508 585 35,200 660 Climbing Fort Worth Center
08:24PM 32.4586 -93.5381 103° East 508 585 36,400 900 Climbing Fort Worth Center
08:25PM 32.4217 -93.3625 104° East 508 585 37,000 300 Climbing Fort Worth Center
08:26PM 32.3869 -93.1969 104° East 508 585 37,000  Level Fort Worth Center
08:27PM 32.3594 -93.0581 103° East 502 578 37,000  Level Fort Worth Center
08:28PM 32.3242 -92.8925 104° East 500 575 37,000  Level Fort Worth Center
08:28PM 32.3086 -92.8336 107° East 514 592 37,000  Level Houston Center
08:29PM 32.2736 -92.6683 104° East 516 594 37,000  Level Houston Center
08:30PM 32.2381 -92.4989 104° East 521 600 37,000  Level Houston Center
08:31PM 32.2008 -92.3319 105° East 524 603 37,000  Level Houston Center
08:32PM 32.1656 -92.1647 104° East 526 605 37,000  Level Houston Center
08:33PM 32.1197 -91.9603 105° East 533 613 37,000  Level Houston Center
08:34PM 32.0814 -91.7914 105° East 533 613 37,000  Level Houston Center
08:35PM 32.0442 -91.6231 105° East 531 611 37,000  Level Houston Center
08:36PM 32.0061 -91.4550 105° East 530 610 37,000  Level Houston Center
08:37PM 31.9669 -91.2853 105° East 533 613 37,000  Level Houston Center
08:38PM 31.9283 -91.1167 105° East 533 613 37,000  Level Houston Center
08:39PM 31.8908 -90.9483 105° East 532 612 37,000  Level Houston Center
08:40PM 31.8514 -90.7806 105° East 523 602 37,000  Level Houston Center
08:41PM 31.8133 -90.6147 105° East 525 604 37,000  Level Houston Center
08:42PM 31.7667 -90.4178 106° East 521 600 37,000  Level Houston Center
08:43PM 31.7275 -90.2522 106° East 525 604 37,000  Level Houston Center
08:44PM 31.6889 -90.0886 105° East 521 600 37,000  Level Houston Center
08:45PM 31.6500 -89.9242 105° East 521 600 37,000  Level Houston Center
08:46PM 31.6100 -89.7600 106° East 521 600 37,000  Level Houston Center
08:47PM 31.5703 -89.5928 106° East 529 609 37,000  Level Houston Center
08:48PM 31.5269 -89.4156 106° East 531 611 37,000  Level Houston Center
08:50PM 31.4872 -89.2500 106° East 529 609 37,000  Level Houston Center
08:51PM 31.4458 -89.0839 106° East 530 610 37,000  Level Houston Center
08:52PM 31.4050 -88.9183 106° East 530 610 37,000  Level Houston Center
08:53PM 31.3625 -88.7508 107° East 533 613 37,000  Level Houston Center
08:54PM 31.3150 -88.5569 106° East 516 594 37,000  Level Houston Center
08:55PM 31.2742 -88.3956 106° East 514 592 37,000  Level Houston Center
08:56PM 31.2333 -88.2333 106° East 512 589 37,000  Level Houston Center
08:57PM 31.1936 -88.0853 107° East 514 592 37,000  Level Houston Center
08:58PM 31.1544 -87.9258 106° East 515 593 37,000 -60 Level Houston Center
08:59PM 31.1131 -87.7675 107° East 512 589 36,900  Descending Houston Center
09:00PM 31.0675 -87.5906 107° East 509 586 37,000 60 Climbing Houston Center
09:00PM 31.0508 -87.5239 106° East 504 580 37,000  Level Jacksonville Center
09:01PM 31.0083 -87.3642 107° East 504 580 37,000  Level Jacksonville Center
09:02PM 30.9506 -87.2236 116° Southeast 504 580 37,000  Level Jacksonville Center
09:03PM 30.8758 -87.0894 123° Southeast 490 564 37,000  Level Jacksonville Center
09:04PM 30.8053 -86.9508 121° Southeast 495 570 37,000  Level Jacksonville Center
09:05PM 30.7322 -86.8172 122° Southeast 495 570 37,000  Level Jacksonville Center
09:06PM 30.6611 -86.6814 121° Southeast 495 570 37,000  Level Jacksonville Center
09:07PM 30.5878 -86.5458 122° Southeast 495 570 37,000  Level Jacksonville Center
09:08PM 30.5186 -86.4106 121° Southeast 490 564 37,000 -60 Level Jacksonville Center
09:09PM 30.4450 -86.2731 122° Southeast 490 564 36,900  Descending Jacksonville Center
09:10PM 30.3733 -86.1381 122° Southeast 490 564 37,000  Climbing Jacksonville Center
09:11PM 30.2994 -86.0033 122° Southeast 490 564 37,000  Level Jacksonville Center
09:12PM 30.2297 -85.8711 121° Southeast 484 557 37,000 -360 Level Jacksonville Center
09:13PM 30.1556 -85.7367 123° Southeast 484 557 36,400 -1,200 Descending Jacksonville Center
09:14PM 30.0894 -85.6075 121° Southeast 484 557 34,700 -2,220 Descending Jacksonville Center
09:15PM 30.0886 -85.4394 90° East 484 557 32,000 -12,000 Descending Jacksonville Center
09:16PM 30.1439 -85.2825 68° East 484 557 11,000 -3,000 Descending Jacksonville Center
09:17PM 30.1883 -85.1297 71° East 484 557 26,000 6,000 Climbing Jacksonville Center
09:18PM 30.2286 -84.9744 73° East 491 565 23,100 -2,760 Descending Jacksonville Center
09:19PM 30.2686 -84.8311 72° East 483 556 20,500 -2,700 Descending Jacksonville Center
09:20PM 30.2914 -84.6919 79° East 462 532 17,800 -2,760 Descending Jacksonville Center
09:21PM 30.3036 -84.5600 84° East 431 496 15,000 -2,820 Descending Jacksonville Center
09:22PM 30.3156 -84.4325 84° East 407 468 12,200 -2,400 Descending Jacksonville Center
09:23PM 30.3275 -84.3197 83° East 380 437 10,200 -2,460 Descending Jacksonville Center
09:24PM 30.3389 -84.2211 82° East 339 390 7,300 -3,000 Descending Jacksonville Center
09:25PM 30.3525 -84.1178 81° East 302 348 4,200 -1,980 Descending Jacksonville Center
09:26PM 30.4025 -84.1256 352° North 137 158 3,400 -840 Descending Jacksonville Center